CPX362 Details

Departure: Portland International Airport (KPDX)
Arrival: Seattle-Tacoma International Airport (KSEA) at N/A
Route: COUGA KRIEG HAWKZ7
Notes:


Current Weather Information
KPDX 231353Z VRB03KT 1/4SM R10R/6000VP6000FT BR OVC002 08/07 A3046 RMK AO2 SFC VIS 2 SLP314 T00780067
KSEA 231403Z 03006KT 1/2SM R16L/3500VP6000FT FG OVC001 08/06 A3049 RMK AO2 TWR VIS 10 T00830061 $